Aérodrome :
LOGIN :

S'inscrire | Disclaimer

   EN    FR    IT 

 










Légende :    VFR   VFR Marginal   IFR   IFR Intensif   IFR Très Intensif
Visi : 
Plafond : 
>= 8 km
>= 3000ft
5 à 8 km
1000 à 3000 ft
1500m à 5 km
500 à 1000 ft
800 à 1500m
200 à 500 ft
< 800m
< 200 ft
Symboles :   Orages  Brouillard  Fortes neiges  Fortes précipitations  Vent > 20 kt
SIGMETs :   Divers  Orages  Givrage  Turbulence  Onde Orograph.  Cendres Volcan.






- Altitude de l'aérodrome : 291 ft
- Code IATA : ORY


LFPO - Paris-Orly

DERNIER METAR :
  • 150700Z 25010KT CAVOK 09/06 Q1002 NOSIG

METARs EXPIRÉS :
  • 150630Z 25012KT CAVOK 10/06 Q1001 NOSIG
  • 150600Z 24012KT CAVOK 10/07 Q1001 NOSIG
  • 150530Z 24014KT CAVOK 10/07 Q1000 NOSIG
  • 150500Z 25013KT 9999 SCT045 BKN067 10/07 Q1000 NOSIG
  • 150430Z 25019G30KT 200V280 9999 -RA SCT011 SCT016 FEW023TCU BKN032 11/08 Q0999 TEMPO 22015G30KT 4000 RA BKN012
  • 150400Z 23016G31KT 9999 BKN016 BKN024 11/08 Q0999 TEMPO 22015G30KT 4000 RA BKN012

TAF TAF LFPO
Valide du 15 à 06h jusqu'au 16 à 12h UTC


150500Z 1506/1612 22013KT 9999 BKN030
PROB40
TEMPO 1510/1512 22018G30KT 4000 SHRA BKN014 SCT020TCU
TEMPO 1519/1601 -RA BKN013
TEMPO 1602/1605 BKN012
BECMG 1605/1607 16005KT -RA
TEMPO 1607/1610 3500 RA BKN009
TEMPO 1611/1612 BKN006
ATIS : +33 1 49 75 65 80



MET'MAP, la Météo Aéronautique d'un coup d'oeil ! - Copyright ORBIFLY Décembre 2007 - Disclaimer

ORBIFLY MET'MAP TEAM :

Programmation & Développement : Alexandra Zaïnal
Sur une idée originale de : Baudouin d'Aumeries
Assistance à la programmation : Marc-Olivier Méhu
Soutien technique & logistique : Manuel Goepfert

Contact : metmap@orbifly.com




SOURCES & CREDITS :

   NOAA